createdAt,value
2022-07-29T00:02:27.224Z,75124.09
2022-07-29T00:04:54.133Z,75122.16
2022-07-29T00:07:21.398Z,75131.81
2022-07-29T00:09:50.839Z,75141.44
2022-07-29T00:12:25.191Z,75129.88
2022-07-29T00:14:57.290Z,75135.66
2022-07-29T00:17:25.144Z,75141.44
2022-07-29T00:19:52.244Z,75151.06
2022-07-29T00:22:19.726Z,75149.13
2022-07-29T00:24:49.051Z,75141.44
2022-07-29T00:27:15.745Z,75149.13
2022-07-29T00:29:42.492Z,75156.84
2022-07-29T00:32:09.369Z,75164.53
2022-07-29T00:34:55.110Z,75168.41
2022-07-29T00:37:22.005Z,75172.25
2022-07-29T00:39:48.796Z,75170.31
2022-07-29T00:42:15.654Z,75172.25
2022-07-29T00:44:42.995Z,75183.81
2022-07-29T00:47:11.807Z,75191.50
2022-07-29T00:49:40.857Z,75197.28
2022-07-29T00:52:09.093Z,75206.91
2022-07-29T00:54:37.417Z,75206.91
2022-07-29T00:57:10.801Z,75206.91
2022-07-29T00:59:37.545Z,75222.34
2022-07-29T01:02:04.615Z,75222.34
2022-07-29T01:04:32.583Z,75230.03
2022-07-29T01:07:00.773Z,75226.19
2022-07-29T01:09:42.862Z,75233.88
2022-07-29T01:12:20.085Z,75228.13
2022-07-29T01:14:49.027Z,75226.19
2022-07-29T01:17:23.122Z,75239.66
2022-07-29T01:19:54.015Z,75243.53
2022-07-29T01:22:23.719Z,75239.66
2022-07-29T01:25:36.218Z,75251.22
2022-07-29T01:28:33.029Z,75255.09
2022-07-29T01:31:03.848Z,75260.84
2022-07-29T01:33:51.831Z,75249.31
2022-07-29T01:36:25.209Z,75257.00
2022-07-29T01:39:13.598Z,75268.56
2022-07-29T01:41:50.307Z,75270.50
2022-07-29T01:44:48.056Z,75276.28
2022-07-29T01:47:24.484Z,75291.69
2022-07-29T01:49:55.911Z,75283.97
2022-07-29T01:52:35.445Z,75283.97
2022-07-29T01:55:09.073Z,75283.97
2022-07-29T01:57:39.008Z,75287.81
2022-07-29T02:00:06.759Z,75287.81
2022-07-29T02:02:42.188Z,75289.75
2022-07-29T02:05:13.707Z,75291.69
2022-07-29T02:07:43.236Z,75297.47
2022-07-29T02:10:11.721Z,75299.38
2022-07-29T02:12:40.311Z,75310.94
2022-07-29T02:15:08.619Z,75291.69
2022-07-29T02:17:59.533Z,75299.38
2022-07-29T02:20:28.675Z,75301.31
2022-07-29T02:22:58.450Z,75301.31
2022-07-29T02:25:36.998Z,75297.47
2022-07-29T02:28:07.709Z,75291.69
2022-07-29T02:30:37.737Z,75291.69
2022-07-29T02:33:06.421Z,75303.25
2022-07-29T02:35:34.546Z,75310.94
2022-07-29T02:38:22.888Z,75318.66
2022-07-29T02:40:51.797Z,75326.34
2022-07-29T02:43:20.241Z,75337.91
2022-07-29T02:45:52.102Z,75351.41
2022-07-29T02:48:23.443Z,75355.25
2022-07-29T02:50:55.343Z,75353.31
2022-07-29T02:53:27.627Z,75357.16
2022-07-29T02:55:58.289Z,75362.94
2022-07-29T02:58:39.247Z,75364.88
2022-07-29T03:01:21.098Z,75368.72
2022-07-29T03:03:50.394Z,75388.00
2022-07-29T03:06:31.071Z,75384.13
2022-07-29T03:09:12.987Z,75388.00
2022-07-29T03:11:50.017Z,75391.84
2022-07-29T03:14:20.262Z,75395.69
2022-07-29T03:16:48.168Z,75395.69
2022-07-29T03:19:15.542Z,75388.00
2022-07-29T03:21:42.293Z,75388.00
2022-07-29T03:24:10.764Z,75388.00
2022-07-29T03:26:37.931Z,75391.84
2022-07-29T03:29:04.817Z,75391.84
2022-07-29T03:31:32.175Z,75389.91
2022-07-29T03:34:00.577Z,75393.78
2022-07-29T03:36:27.466Z,75391.84
2022-07-29T03:38:54.376Z,75382.22
2022-07-29T03:41:24.060Z,75372.59
2022-07-29T03:43:52.474Z,75361.03
2022-07-29T03:46:24.216Z,75337.91
2022-07-29T03:48:57.528Z,75318.66
2022-07-29T03:51:34.041Z,75280.13
2022-07-29T03:54:07.837Z,75245.44
2022-07-29T03:56:40.946Z,75206.91
2022-07-29T03:59:08.682Z,75149.13
2022-07-29T04:01:36.438Z,75079.78
2022-07-29T04:04:04.243Z,75052.81
2022-07-29T04:06:45.807Z,75074.00
2022-07-29T04:09:15.390Z,75091.34
2022-07-29T04:12:02.060Z,75093.28
2022-07-29T04:14:29.832Z,75022.00
2022-07-29T04:16:56.568Z,74829.41
2022-07-29T04:19:23.603Z,74706.13
2022-07-29T04:21:50.605Z,74582.88
2022-07-29T04:24:17.840Z,74357.56
2022-07-29T04:26:47.105Z,74297.84
2022-07-29T04:29:15.353Z,74163.06
2022-07-29T04:31:42.831Z,74039.81
2022-07-29T04:34:10.597Z,73935.84
2022-07-29T04:36:37.342Z,73953.16
2022-07-29T04:39:04.660Z,73991.66
2022-07-29T04:41:33.335Z,73920.44
2022-07-29T04:44:06.866Z,73901.16
2022-07-29T04:46:34.866Z,73785.63
2022-07-29T04:49:02.362Z,73758.69
2022-07-29T04:51:29.187Z,73546.88
2022-07-29T04:53:55.896Z,73385.16
2022-07-29T04:56:22.859Z,73481.44
2022-07-29T04:58:49.573Z,73502.59
2022-07-29T05:01:16.461Z,73616.19
2022-07-29T05:03:43.349Z,73439.06
2022-07-29T05:06:10.036Z,73402.50
2022-07-29T05:08:36.762Z,73238.84
2022-07-29T05:11:11.464Z,73265.81
2022-07-29T05:13:45.986Z,73188.81
2022-07-29T05:16:14.358Z,73235.00
2022-07-29T05:18:41.903Z,72982.81
2022-07-29T05:21:08.619Z,72930.84
2022-07-29T05:23:35.310Z,72938.53
2022-07-29T05:26:02.063Z,72934.69
2022-07-29T05:28:28.819Z,72892.34
2022-07-29T05:30:55.598Z,73030.94
2022-07-29T05:33:35.732Z,72961.66
2022-07-29T05:36:09.485Z,72788.41
2022-07-29T05:38:37.481Z,72790.31
2022-07-29T05:41:05.622Z,72934.69
2022-07-29T05:43:32.789Z,72696.00
2022-07-29T05:45:59.938Z,72665.22
2022-07-29T05:48:26.802Z,72626.72
2022-07-29T05:50:53.852Z,72757.59
2022-07-29T05:53:21.060Z,72799.94
2022-07-29T05:55:48.961Z,73017.47
2022-07-29T05:58:15.857Z,72780.69
2022-07-29T06:00:42.907Z,72719.09
2022-07-29T06:03:09.574Z,73004.00
2022-07-29T06:05:36.510Z,72826.91
2022-07-29T06:08:03.439Z,72903.91
2022-07-29T06:10:30.383Z,72669.06
2022-07-29T06:12:57.451Z,72911.59
2022-07-29T06:15:24.671Z,72786.47
2022-07-29T06:18:00.222Z,72761.44
2022-07-29T06:20:34.423Z,72659.44
2022-07-29T06:23:02.351Z,72609.38
2022-07-29T06:25:35.740Z,72857.69
2022-07-29T06:28:02.455Z,72715.25
2022-07-29T06:30:29.812Z,72715.25
2022-07-29T06:32:56.650Z,72555.50
2022-07-29T06:35:42.091Z,72557.41
2022-07-29T06:38:25.133Z,72515.06
2022-07-29T06:41:06.816Z,72476.59
2022-07-29T06:43:50.272Z,72696.00
2022-07-29T06:46:20.703Z,72595.91
2022-07-29T06:48:48.738Z,72478.50
2022-07-29T06:51:15.912Z,72470.81
2022-07-29T06:53:59.850Z,72653.66
2022-07-29T06:56:38.453Z,72657.50
2022-07-29T06:59:06.647Z,72715.25
2022-07-29T07:01:33.515Z,72645.97
2022-07-29T07:04:00.206Z,72807.66
2022-07-29T07:06:27.070Z,72977.03
2022-07-29T07:08:53.780Z,72878.88
2022-07-29T07:11:20.730Z,72911.59
2022-07-29T07:13:47.567Z,72805.72
2022-07-29T07:16:14.750Z,72676.75
2022-07-29T07:18:41.610Z,72894.28
2022-07-29T07:21:09.482Z,72988.59
2022-07-29T07:23:36.269Z,73088.69
2022-07-29T07:26:04.049Z,73142.59
2022-07-29T07:28:30.843Z,73131.03
2022-07-29T07:30:57.575Z,73312.00
2022-07-29T07:33:24.319Z,73435.22
2022-07-29T07:35:51.140Z,73529.56
2022-07-29T07:38:18.088Z,73558.44
2022-07-29T07:40:44.916Z,73558.44
2022-07-29T07:43:12.288Z,73620.06
2022-07-29T07:45:40.357Z,73587.31
2022-07-29T07:48:07.163Z,73531.50
2022-07-29T07:50:33.996Z,73566.16
2022-07-29T07:53:03.131Z,73589.25
2022-07-29T07:55:42.427Z,73627.75
2022-07-29T07:58:16.762Z,73849.19
2022-07-29T08:00:43.534Z,73831.84
2022-07-29T08:03:17.223Z,73920.44
2022-07-29T08:05:44.408Z,73822.22
2022-07-29T08:08:11.329Z,73851.09
2022-07-29T08:10:53.339Z,73851.09
2022-07-29T08:13:22.082Z,73789.50
2022-07-29T08:15:58.604Z,73745.22
2022-07-29T08:18:26.682Z,73716.31
2022-07-29T08:20:53.816Z,73716.31
2022-07-29T08:23:20.825Z,73695.16
2022-07-29T08:25:47.587Z,73693.22
2022-07-29T08:28:18.089Z,73677.81
2022-07-29T08:30:45.009Z,73704.78
2022-07-29T08:33:11.799Z,73843.41
2022-07-29T08:35:40.068Z,73816.44
2022-07-29T08:38:06.910Z,73922.34
2022-07-29T08:40:33.680Z,73866.50
2022-07-29T08:43:08.522Z,73770.25
2022-07-29T08:45:47.309Z,73697.06
2022-07-29T08:48:15.307Z,73672.03
2022-07-29T08:50:43.605Z,73700.91
2022-07-29T08:53:15.539Z,73704.78
2022-07-29T08:55:51.400Z,73660.50
2022-07-29T08:58:23.282Z,73641.22
2022-07-29T09:00:56.879Z,73666.25
2022-07-29T09:03:28.297Z,73581.56
2022-07-29T09:05:55.353Z,73560.38
2022-07-29T09:08:22.494Z,73577.69
2022-07-29T09:10:52.765Z,73625.84
2022-07-29T09:13:19.547Z,73629.69
2022-07-29T09:15:46.363Z,73623.91
2022-07-29T09:18:39.591Z,73693.22
2022-07-29T09:21:27.263Z,73702.84
2022-07-29T09:24:14.636Z,73662.41
2022-07-29T09:26:43.487Z,73602.72
2022-07-29T09:29:16.300Z,73571.91
2022-07-29T09:31:48.179Z,73546.88
2022-07-29T09:34:17.024Z,73679.75
2022-07-29T09:36:46.231Z,73612.34
2022-07-29T09:39:15.468Z,73604.66
2022-07-29T09:41:53.885Z,73641.22
2022-07-29T09:44:22.393Z,73631.59
2022-07-29T09:46:58.886Z,73620.06
2022-07-29T09:49:26.240Z,73550.75
2022-07-29T09:52:08.319Z,73535.34
2022-07-29T09:54:39.027Z,73508.38
2022-07-29T09:57:22.072Z,73587.31
2022-07-29T10:00:10.436Z,73608.50
2022-07-29T10:02:41.802Z,73600.81
2022-07-29T10:05:36.337Z,73548.81
2022-07-29T10:08:04.162Z,73539.19
2022-07-29T10:10:36.903Z,73427.53
2022-07-29T10:13:15.835Z,73412.13
2022-07-29T10:15:47.291Z,73331.25
2022-07-29T10:18:15.567Z,73441.00
2022-07-29T10:20:42.649Z,73319.72
2022-07-29T10:23:10.627Z,73292.75
2022-07-29T10:25:37.994Z,73327.41
2022-07-29T10:28:06.705Z,73348.59
2022-07-29T10:30:33.719Z,73456.41
2022-07-29T10:33:27.795Z,73389.03
2022-07-29T10:36:24.693Z,73412.13
2022-07-29T10:39:07.337Z,73394.78
2022-07-29T10:41:57.623Z,73414.03
2022-07-29T10:44:26.593Z,73439.06
2022-07-29T10:46:54.606Z,73473.72
2022-07-29T10:49:25.849Z,73466.03
2022-07-29T10:52:10.566Z,73485.28
2022-07-29T10:54:38.048Z,73485.28
2022-07-29T10:57:12.726Z,73487.22
2022-07-29T10:59:40.249Z,73466.03
2022-07-29T11:02:41.440Z,73439.06
2022-07-29T11:05:14.928Z,73439.06
2022-07-29T11:08:20.188Z,73431.38
2022-07-29T11:10:49.707Z,73442.94
2022-07-29T11:13:44.426Z,73492.97
2022-07-29T11:16:11.265Z,73467.97
2022-07-29T11:19:13.072Z,73483.34
2022-07-29T11:21:53.496Z,73454.47
2022-07-29T11:24:32.161Z,73475.66
2022-07-29T11:27:13.226Z,73421.75
2022-07-29T11:29:58.616Z,73441.00
2022-07-29T11:32:29.487Z,73489.13
2022-07-29T11:35:17.061Z,73500.69
2022-07-29T11:37:52.551Z,73439.06
2022-07-29T11:40:23.272Z,73423.69
2022-07-29T11:42:52.011Z,73398.66
2022-07-29T11:45:42.624Z,73423.69
2022-07-29T11:48:29.411Z,73433.31
2022-07-29T11:50:59.606Z,73437.16
2022-07-29T11:53:29.067Z,73448.69
2022-07-29T11:56:00.200Z,73392.88
2022-07-29T11:58:28.680Z,73360.13
2022-07-29T12:00:56.466Z,73342.81
2022-07-29T12:03:34.814Z,73342.81
2022-07-29T12:06:02.915Z,73335.13
2022-07-29T12:08:30.866Z,73335.13
2022-07-29T12:10:57.763Z,73315.84
2022-07-29T12:13:31.197Z,73335.13
2022-07-29T12:16:04.393Z,73398.66
2022-07-29T12:18:31.143Z,73350.50
2022-07-29T12:21:03.427Z,73279.28
2022-07-29T12:23:34.281Z,73231.16
2022-07-29T12:26:07.462Z,73246.56
2022-07-29T12:28:39.714Z,73146.44
2022-07-29T12:31:08.100Z,73192.66
2022-07-29T12:33:36.011Z,73219.59
2022-07-29T12:36:10.371Z,73273.50
2022-07-29T12:38:41.593Z,73231.16
2022-07-29T12:41:08.492Z,73292.75
2022-07-29T12:43:35.411Z,73235.00
2022-07-29T12:46:14.210Z,73184.94
2022-07-29T12:48:43.501Z,73165.69
2022-07-29T12:51:12.726Z,73119.50
2022-07-29T12:53:39.874Z,73104.09
2022-07-29T12:56:26.611Z,73150.28
2022-07-29T12:58:54.919Z,73208.06
2022-07-29T13:01:22.163Z,73148.38
2022-07-29T13:03:57.391Z,73154.16
2022-07-29T13:06:59.803Z,73117.56
2022-07-29T13:09:39.549Z,73109.88
2022-07-29T13:12:11.884Z,73104.09
2022-07-29T13:14:41.317Z,73202.28
2022-07-29T13:17:09.591Z,73260.03
2022-07-29T13:19:54.020Z,73273.50
2022-07-29T13:22:22.891Z,73350.50
2022-07-29T13:24:50.978Z,73354.38
2022-07-29T13:27:19.620Z,73377.47
2022-07-29T13:29:46.376Z,73342.81
2022-07-29T13:32:14.153Z,73346.66
2022-07-29T13:34:41.854Z,73315.84
2022-07-29T13:37:08.650Z,73273.50
2022-07-29T13:39:35.438Z,73333.19
2022-07-29T13:42:02.210Z,73385.16
2022-07-29T13:44:28.933Z,73362.06
2022-07-29T13:46:57.970Z,73389.03
2022-07-29T13:49:24.669Z,73412.13
2022-07-29T13:51:51.480Z,73390.94
2022-07-29T13:54:18.207Z,73427.53
2022-07-29T13:56:46.217Z,73406.34
2022-07-29T13:59:13.806Z,73419.81
2022-07-29T14:01:43.113Z,73442.94
2022-07-29T14:04:10.853Z,73435.22
2022-07-29T14:06:40.486Z,73431.38
2022-07-29T14:09:07.397Z,73442.94
2022-07-29T14:11:39.360Z,73452.56
2022-07-29T14:14:06.231Z,73471.81
2022-07-29T14:16:33.162Z,73539.19
2022-07-29T14:19:00.994Z,73558.44
2022-07-29T14:21:29.593Z,73587.31
2022-07-29T14:23:58.186Z,73639.31
2022-07-29T14:26:24.969Z,73648.94
2022-07-29T14:28:51.777Z,73689.38
2022-07-29T14:31:18.606Z,73693.22
2022-07-29T14:33:46.123Z,73735.59
2022-07-29T14:36:16.258Z,73831.84
2022-07-29T14:38:43.117Z,73854.97
2022-07-29T14:41:09.902Z,73941.59
2022-07-29T14:43:36.583Z,73997.44
2022-07-29T14:46:08.190Z,74070.63
2022-07-29T14:48:36.011Z,74143.78
2022-07-29T14:51:04.878Z,74178.47
2022-07-29T14:53:32.685Z,74232.38
2022-07-29T14:56:10.270Z,74280.53
2022-07-29T14:58:51.579Z,74288.22
2022-07-29T15:01:18.618Z,74349.84
2022-07-29T15:03:45.582Z,74398.00
2022-07-29T15:06:12.497Z,74392.22
2022-07-29T15:08:39.278Z,74409.53
2022-07-29T15:11:06.174Z,74451.91
2022-07-29T15:13:34.005Z,74469.25
2022-07-29T15:16:00.802Z,74475.03
2022-07-29T15:18:27.576Z,74471.16
2022-07-29T15:20:54.548Z,74490.44
2022-07-29T15:23:21.307Z,74490.44
2022-07-29T15:25:48.184Z,74486.56
2022-07-29T15:28:14.985Z,74517.38
2022-07-29T15:30:41.934Z,74498.13
2022-07-29T15:33:10.483Z,74494.28
2022-07-29T15:35:40.451Z,74525.09
2022-07-29T15:38:08.176Z,74536.66
2022-07-29T15:40:35.153Z,74530.88
2022-07-29T15:43:06.642Z,74540.50
2022-07-29T15:45:40.494Z,74563.63
2022-07-29T15:48:09.028Z,74596.34
2022-07-29T15:50:35.951Z,74563.63
2022-07-29T15:53:02.757Z,74525.09
2022-07-29T15:55:29.563Z,74498.13
2022-07-29T15:58:00.443Z,74475.03
2022-07-29T16:00:27.873Z,74467.31
2022-07-29T16:02:54.550Z,74434.59
2022-07-29T16:05:21.519Z,74419.16
2022-07-29T16:07:48.247Z,74409.53
2022-07-29T16:10:15.488Z,74403.78
2022-07-29T16:12:42.221Z,74405.69
2022-07-29T16:15:10.862Z,74399.91
2022-07-29T16:17:38.932Z,74386.44
2022-07-29T16:20:06.609Z,74390.28
2022-07-29T16:22:33.425Z,74386.44
2022-07-29T16:25:00.234Z,74382.59
2022-07-29T16:27:35.450Z,74380.66
2022-07-29T16:30:08.282Z,74376.81
2022-07-29T16:32:35.289Z,74371.03
2022-07-29T16:35:05.358Z,74378.72
2022-07-29T16:37:35.518Z,74378.72
2022-07-29T16:40:07.127Z,74384.50
2022-07-29T16:42:46.766Z,74386.44
2022-07-29T16:45:15.642Z,74390.28
2022-07-29T16:47:42.477Z,74401.84
2022-07-29T16:50:09.526Z,74396.06
2022-07-29T16:52:37.627Z,74384.50
2022-07-29T16:55:04.859Z,74374.88
2022-07-29T16:57:31.655Z,74382.59
2022-07-29T16:59:58.825Z,74384.50
2022-07-29T17:02:25.620Z,74374.88
2022-07-29T17:04:52.419Z,74390.28
2022-07-29T17:07:19.121Z,74371.03
2022-07-29T17:09:45.896Z,74378.72
2022-07-29T17:12:12.663Z,74374.88
2022-07-29T17:14:39.468Z,74363.31
2022-07-29T17:17:13.734Z,74357.56
2022-07-29T17:19:43.480Z,74347.91
2022-07-29T17:22:15.605Z,74346.00
2022-07-29T17:24:46.316Z,74340.22
2022-07-29T17:27:13.994Z,74344.06
2022-07-29T17:29:41.551Z,74332.50
2022-07-29T17:32:09.472Z,74332.50
2022-07-29T17:34:41.052Z,74338.28
2022-07-29T17:37:09.569Z,74359.47
2022-07-29T17:39:37.251Z,74359.47
2022-07-29T17:42:04.540Z,74357.56
2022-07-29T17:44:31.537Z,74359.47
2022-07-29T17:47:00.538Z,74365.25
2022-07-29T17:49:28.144Z,74367.19
2022-07-29T17:51:59.014Z,74363.31
2022-07-29T17:54:27.585Z,74369.09
2022-07-29T17:56:54.367Z,74374.88
2022-07-29T17:59:21.814Z,74390.28
2022-07-29T18:01:48.743Z,74390.28
2022-07-29T18:04:20.128Z,74390.28
2022-07-29T18:06:47.133Z,74396.06
2022-07-29T18:09:13.905Z,74405.69
2022-07-29T18:11:40.685Z,74405.69
2022-07-29T18:14:11.601Z,74411.47
2022-07-29T18:16:38.633Z,74415.31
2022-07-29T18:19:05.560Z,74423.03
2022-07-29T18:21:38.145Z,74421.09
2022-07-29T18:24:18.891Z,74421.09
2022-07-29T18:26:45.945Z,74426.88
2022-07-29T18:29:12.820Z,74438.44
2022-07-29T18:31:41.212Z,74440.34
2022-07-29T18:34:08.148Z,74442.28
2022-07-29T18:36:34.903Z,74463.47
2022-07-29T18:39:01.633Z,74467.31
2022-07-29T18:41:29.174Z,74478.88
2022-07-29T18:43:55.882Z,74494.28
2022-07-29T18:46:22.663Z,74507.75
2022-07-29T18:48:49.987Z,74525.09
2022-07-29T18:51:16.747Z,74521.25
2022-07-29T18:53:44.362Z,74536.66
2022-07-29T18:56:11.083Z,74548.22
2022-07-29T18:58:38.863Z,74548.22
2022-07-29T19:01:06.189Z,74548.22
2022-07-29T19:03:32.904Z,74552.06
2022-07-29T19:05:59.717Z,74548.22
2022-07-29T19:08:26.416Z,74567.47
2022-07-29T19:10:53.393Z,74579.03
2022-07-29T19:13:20.141Z,74596.34
2022-07-29T19:15:46.932Z,74607.91
2022-07-29T19:18:13.847Z,74615.63
2022-07-29T19:20:41.955Z,74629.09
2022-07-29T19:23:09.430Z,74636.81
2022-07-29T19:25:37.414Z,74650.28
2022-07-29T19:28:21.613Z,74661.84
2022-07-29T19:30:49.093Z,74659.91
2022-07-29T19:33:17.654Z,74667.63
2022-07-29T19:35:49.371Z,74667.63
2022-07-29T19:38:19.726Z,74671.47
2022-07-29T19:40:46.631Z,74675.31
2022-07-29T19:43:51.528Z,74679.16
2022-07-29T19:46:00.557Z,74679.16
2022-07-29T19:48:27.301Z,74683.03
2022-07-29T19:50:54.012Z,74684.94
2022-07-29T19:53:21.032Z,74692.66
2022-07-29T19:55:50.656Z,74708.06
2022-07-29T19:58:17.402Z,74715.75
2022-07-29T20:00:44.212Z,74725.41
2022-07-29T20:03:11.069Z,74729.25
2022-07-29T20:05:37.827Z,74746.56
2022-07-29T20:08:06.270Z,74756.22
2022-07-29T20:10:33.733Z,74762.00
2022-07-29T20:13:00.641Z,74771.63
2022-07-29T20:15:27.381Z,74777.41
2022-07-29T20:17:57.341Z,74779.31
2022-07-29T20:20:25.234Z,74787.03
2022-07-29T20:22:53.057Z,74787.03
2022-07-29T20:25:19.826Z,74788.94
2022-07-29T20:27:46.598Z,74790.88
2022-07-29T20:30:14.570Z,74790.88
2022-07-29T20:32:41.623Z,74790.88
2022-07-29T20:35:10.033Z,74800.50
2022-07-29T20:37:52.417Z,74804.34
2022-07-29T20:40:24.314Z,74810.13
2022-07-29T20:42:51.084Z,74821.69
2022-07-29T20:45:19.968Z,74833.25
2022-07-29T20:47:46.777Z,74840.97
2022-07-29T20:50:13.528Z,74844.81
2022-07-29T20:52:41.194Z,74856.38
2022-07-29T20:55:09.106Z,74852.50
2022-07-29T20:57:39.017Z,74860.22
2022-07-29T21:00:07.187Z,74864.06
2022-07-29T21:02:34.558Z,74862.13
2022-07-29T21:05:01.327Z,74869.84
2022-07-29T21:07:28.084Z,74864.06
2022-07-29T21:09:55.042Z,74864.06
2022-07-29T21:12:22.368Z,74867.91
2022-07-29T21:14:49.464Z,74867.91
2022-07-29T21:17:19.353Z,74869.84
2022-07-29T21:19:50.674Z,74879.47
2022-07-29T21:22:18.932Z,74877.56
2022-07-29T21:24:45.672Z,74885.25
2022-07-29T21:27:31.063Z,74887.19
2022-07-29T21:29:57.761Z,74887.19
2022-07-29T21:32:27.425Z,74891.03
2022-07-29T21:34:57.378Z,74891.03
2022-07-29T21:37:24.183Z,74887.19
2022-07-29T21:39:50.934Z,74883.31
2022-07-29T21:42:17.658Z,74887.19
2022-07-29T21:44:44.363Z,74898.72
2022-07-29T21:47:11.867Z,74900.66
2022-07-29T21:49:39.142Z,74906.44
2022-07-29T21:52:06.227Z,74918.00
2022-07-29T21:54:34.967Z,74921.84
2022-07-29T21:57:01.930Z,74927.63
2022-07-29T21:59:29.417Z,74931.47
2022-07-29T22:01:56.550Z,74937.25
2022-07-29T22:04:23.585Z,74939.19
2022-07-29T22:06:50.357Z,74944.97
2022-07-29T22:09:17.066Z,74958.44
2022-07-29T22:11:43.901Z,74960.38
2022-07-29T22:14:10.701Z,74960.38
2022-07-29T22:16:37.470Z,74964.22
2022-07-29T22:19:04.417Z,74968.06
2022-07-29T22:21:31.203Z,74971.94
2022-07-29T22:23:58.134Z,74968.06
2022-07-29T22:26:24.971Z,74968.06
2022-07-29T22:28:51.839Z,74970.00
2022-07-29T22:31:18.769Z,74970.00
2022-07-29T22:33:45.521Z,74973.84
2022-07-29T22:36:12.251Z,74985.41
2022-07-29T22:38:39.123Z,74987.34
2022-07-29T22:41:05.860Z,74983.47
2022-07-29T22:43:32.552Z,74983.47
2022-07-29T22:45:59.535Z,74983.47
2022-07-29T22:48:26.612Z,74979.63
2022-07-29T22:50:53.352Z,74971.94
2022-07-29T22:53:20.371Z,74975.78
2022-07-29T22:55:47.122Z,74983.47
2022-07-29T22:58:13.800Z,74979.63
2022-07-29T23:00:41.328Z,74983.47
2022-07-29T23:03:08.084Z,74985.41
2022-07-29T23:05:34.878Z,74983.47
2022-07-29T23:08:01.729Z,74983.47
2022-07-29T23:10:28.707Z,74983.47
2022-07-29T23:12:55.426Z,74983.47
2022-07-29T23:15:23.076Z,74983.47
2022-07-29T23:17:49.932Z,74971.94
2022-07-29T23:20:16.769Z,74973.84
2022-07-29T23:22:43.528Z,74975.78
2022-07-29T23:25:10.306Z,74971.94
2022-07-29T23:27:37.021Z,74971.94
2022-07-29T23:30:04.960Z,74971.94
2022-07-29T23:32:31.751Z,74966.16
2022-07-29T23:34:58.557Z,74962.28
2022-07-29T23:37:26.820Z,74964.22
2022-07-29T23:39:53.938Z,74960.38
2022-07-29T23:42:23.898Z,74968.06
2022-07-29T23:44:51.108Z,74979.63
2022-07-29T23:47:18.118Z,74979.63
2022-07-29T23:49:46.166Z,74979.63
2022-07-29T23:52:12.912Z,74987.34
2022-07-29T23:54:39.641Z,74991.19
2022-07-29T23:57:06.415Z,75004.66
2022-07-29T23:59:33.119Z,75004.66
